Time;durP1;ratioP1;P1;durP2;ratioP2;P2;SDS_P1;SDS_P2;PMS_P1;PMS_P2;Temp;Humidity;BMP_temperature;BMP_pressure;BME280_temperature;BME280_humidity;BME280_pressure;Samples;Min_cycle;Max_cycle;Signal;HPM_P1;HPM_P2
2022/08/05 00:00:34;;;;;;;4.70;1.55;;;;;;;25.39;53.95;101422.22;5094829;28;20024;-64
2022/08/05 00:03:00;;;;;;;3.90;1.63;;;;;;;25.39;53.52;101419.53;5096492;28;20024;-64
2022/08/05 00:05:25;;;;;;;4.20;1.77;;;;;;;25.38;53.80;101421.38;5096958;28;20032;-63
2022/08/05 00:07:50;;;;;;;3.53;1.63;;;;;;;25.38;53.78;101426.72;5095825;28;20364;-64
2022/08/05 00:10:16;;;;;;;5.13;1.65;;;;;;;25.36;53.68;101418.03;5096413;28;20081;-64
2022/08/05 00:12:41;;;;;;;3.93;1.43;;;;;;;25.37;53.77;101424.22;5096979;28;20028;-64
2022/08/05 00:15:07;;;;;;;3.00;1.70;;;;;;;25.37;53.94;101424.22;5095431;28;20778;-64
2022/08/05 00:17:32;;;;;;;6.05;2.03;;;;;;;25.35;53.60;101427.84;5096319;28;20288;-64
2022/08/05 00:19:57;;;;;;;3.70;1.90;;;;;;;25.36;53.72;101431.38;5096615;28;20111;-63
2022/08/05 00:22:23;;;;;;;3.70;1.63;;;;;;;25.37;53.92;101424.22;5095792;28;20478;-64
2022/08/05 00:24:48;;;;;;;3.35;1.55;;;;;;;25.37;53.53;101424.22;5096236;28;20284;-64
2022/08/05 00:27:16;;;;;;;5.22;1.52;;;;;;;25.35;53.33;101427.84;5096345;28;20020;-64
2022/08/05 00:29:41;;;;;;;4.07;1.80;;;;;;;25.37;53.45;101424.22;5095421;28;20057;-64
2022/08/05 00:32:11;;;;;;;4.23;1.60;;;;;;;25.36;53.56;101436.72;5096021;28;20028;-64
2022/08/05 00:34:36;;;;;;;4.32;2.03;;;;;;;25.35;53.42;101429.69;5096358;28;20032;-64
2022/08/05 00:37:02;;;;;;;3.83;1.75;;;;;;;25.34;53.71;101431.53;5095293;28;20081;-64
2022/08/05 00:39:27;;;;;;;4.85;1.50;;;;;;;25.34;53.44;101428.00;5096339;28;20055;-64
2022/08/05 00:41:52;;;;;;;3.43;1.57;;;;;;;25.33;53.85;101443.19;5095573;28;20048;-64
2022/08/05 00:44:17;;;;;;;3.80;1.50;;;;;;;25.34;53.57;101431.53;5095622;28;20028;-64
2022/08/05 00:46:43;;;;;;;4.97;1.92;;;;;;;25.33;53.99;101421.03;5095981;28;20024;-64
2022/08/05 00:49:08;;;;;;;3.53;1.57;;;;;;;25.34;53.58;101422.69;5094084;28;20464;-64
2022/08/05 00:51:33;;;;;;;4.50;1.73;;;;;;;25.33;53.89;101408.50;5096136;28;20265;-64
2022/08/05 00:53:58;;;;;;;3.63;1.60;;;;;;;25.33;53.61;101413.03;5095575;28;20032;-63
2022/08/05 00:56:24;;;;;;;4.13;1.80;;;;;;;25.31;54.02;101417.66;5095116;28;20308;-63
2022/08/05 00:58:52;;;;;;;4.37;1.73;;;;;;;25.31;53.97;101429.19;5095922;28;20028;-63
2022/08/05 01:01:17;;;;;;;4.93;1.90;;;;;;;25.31;53.87;101423.84;5095506;28;20281;-64
2022/08/05 01:03:43;;;;;;;4.00;1.80;;;;;;;25.32;54.01;101422.84;5095180;28;20020;-64
2022/08/05 01:06:09;;;;;;;4.53;1.75;;;;;;;25.31;53.97;101423.00;5095559;28;20032;-65
2022/08/05 01:08:34;;;;;;;4.65;1.67;;;;;;;25.31;54.15;101431.00;5095946;28;20020;-62
2022/08/05 01:11:32;;;;;;;4.23;1.80;;;;;;;25.30;53.91;101450.69;5094424;28;20024;-62
2022/08/05 01:14:49;;;;;;;3.30;1.60;;;;;;;25.29;53.90;101465.88;5075549;28;20273;-62
2022/08/05 01:17:55;;;;;;;3.72;1.63;;;;;;;25.28;53.84;101477.50;5020801;28;20079;-63
2022/08/05 01:20:32;;;;;;;4.53;1.67;;;;;;;25.29;54.01;101495.19;4993592;28;20122;-62
2022/08/05 01:23:10;;;;;;;3.28;1.42;;;;;;;25.28;53.85;101495.38;4993444;28;20494;-62
2022/08/05 01:25:54;;;;;;;3.33;1.75;;;;;;;25.28;54.37;101506.84;5058081;28;20048;-62
2022/08/05 01:28:41;;;;;;;3.10;1.40;;;;;;;25.27;54.16;101510.47;5095409;28;20067;-62
2022/08/05 01:31:11;;;;;;;4.45;1.67;;;;;;;25.27;54.08;101499.81;5094378;28;20035;-62
2022/08/05 01:33:50;;;;;;;4.32;1.65;;;;;;;25.26;54.34;101481.28;5095388;28;20064;-62
2022/08/05 01:36:17;;;;;;;3.38;1.60;;;;;;;25.26;54.20;101481.28;5094865;28;20028;-62
2022/08/05 01:38:46;;;;;;;4.18;1.50;;;;;;;25.27;53.99;101486.47;5094155;28;20027;-62
2022/08/05 01:41:15;;;;;;;4.20;1.70;;;;;;;25.27;53.81;101491.81;5094752;28;20107;-62
2022/08/05 01:43:41;;;;;;;4.35;1.50;;;;;;;25.28;53.93;101498.84;5094834;28;20480;-62
2022/08/05 01:46:07;;;;;;;5.15;1.60;;;;;;;25.27;54.05;101507.81;5093632;28;20039;-62
2022/08/05 01:48:34;;;;;;;4.82;1.42;;;;;;;25.27;53.80;101507.81;5094764;28;20097;-62
2022/08/05 01:51:01;;;;;;;3.67;1.40;;;;;;;25.25;54.14;101483.13;5094348;28;20032;-62
2022/08/05 01:53:27;;;;;;;4.10;1.88;;;;;;;25.26;54.00;101489.28;5094099;28;20016;-62
2022/08/05 01:55:57;;;;;;;4.78;1.60;;;;;;;25.26;54.12;101486.63;5094865;28;20020;-62
2022/08/05 01:58:26;;;;;;;2.90;1.27;;;;;;;25.26;54.11;101475.94;5094757;28;20044;-62
2022/08/05 02:00:53;;;;;;;5.43;1.67;;;;;;;25.25;53.83;101458.28;5093752;28;20052;-62
2022/08/05 02:03:28;;;;;;;4.07;1.65;;;;;;;25.25;54.20;101443.13;5094344;28;20036;-62
2022/08/05 02:05:53;;;;;;;4.03;1.65;;;;;;;25.24;53.95;101428.09;5094497;28;20081;-63
2022/08/05 02:08:19;;;;;;;3.67;1.90;;;;;;;25.25;53.56;101412.94;5093506;28;20032;-64
2022/08/05 02:10:52;;;;;;;4.18;1.50;;;;;;;25.25;53.68;101419.13;5094407;28;20020;-62
2022/08/05 02:13:24;;;;;;;3.53;1.40;;;;;;;25.23;53.62;101410.44;5093139;28;20048;-62
2022/08/05 02:16:13;;;;;;;3.83;1.63;;;;;;;25.24;53.80;101445.94;5094073;28;20395;-64
2022/08/05 02:19:10;;;;;;;4.43;1.60;;;;;;;25.24;53.41;101476.13;5094510;28;20048;-64
2022/08/05 02:21:41;;;;;;;3.33;1.50;;;;;;;25.25;53.37;101436.97;5093167;28;20093;-63
2022/08/05 02:24:09;;;;;;;3.88;1.60;;;;;;;25.23;53.42;101420.25;5093611;28;20466;-63
2022/08/05 02:26:42;;;;;;;3.55;1.40;;;;;;;25.23;53.45;101452.25;5093910;28;20028;-63
2022/08/05 02:29:12;;;;;;;5.70;1.85;;;;;;;25.24;53.31;101460.09;5093266;28;20209;-63
2022/08/05 02:31:39;;;;;;;5.30;1.90;;;;;;;25.23;53.35;101477.13;5094036;28;20077;-63
2022/08/05 02:34:10;;;;;;;4.88;1.80;;;;;;;25.24;53.71;101486.78;5092697;28;20040;-63
2022/08/05 02:36:41;;;;;;;4.57;1.70;;;;;;;25.22;53.78;101480.78;5093115;28;20024;-63
2022/08/05 02:39:08;;;;;;;3.25;1.42;;;;;;;25.21;53.47;101473.75;5093448;28;20051;-64
2022/08/05 02:41:35;;;;;;;4.40;1.60;;;;;;;25.22;53.84;101486.09;5093168;28;20103;-64
2022/08/05 02:44:02;;;;;;;4.45;1.60;;;;;;;25.22;53.68;101477.28;5093523;28;20131;-64
2022/08/05 02:46:28;;;;;;;5.18;1.95;;;;;;;25.20;53.39;101472.09;5093870;28;20042;-63
2022/08/05 02:48:55;;;;;;;4.68;1.63;;;;;;;25.20;53.69;101455.25;5093066;28;20094;-64
2022/08/05 02:51:21;;;;;;;4.03;1.63;;;;;;;25.21;53.46;101460.41;5093264;28;20049;-63
2022/08/05 02:53:47;;;;;;;6.25;1.77;;;;;;;25.22;53.77;101447.94;5093773;28;20020;-63
2022/08/05 02:56:13;;;;;;;3.25;1.40;;;;;;;25.21;53.24;101440.91;5091486;28;20040;-63
2022/08/05 02:58:40;;;;;;;4.40;1.60;;;;;;;25.20;53.25;101445.44;5093502;28;20376;-63
2022/08/05 03:01:12;;;;;;;4.40;1.50;;;;;;;25.21;53.30;101446.25;5093172;28;20060;-63
2022/08/05 03:03:39;;;;;;;4.30;1.60;;;;;;;25.21;53.45;101440.91;5092658;28;20051;-63
2022/08/05 03:06:07;;;;;;;4.82;1.52;;;;;;;25.20;53.09;101441.91;5092869;28;20384;-63
2022/08/05 03:08:34;;;;;;;3.95;1.50;;;;;;;25.20;52.80;101437.44;5093530;28;20076;-63
2022/08/05 03:10:59;;;;;;;4.55;1.65;;;;;;;25.19;52.69;101437.59;5092174;28;20020;-63
2022/08/05 03:13:25;;;;;;;4.73;1.67;;;;;;;25.19;53.01;101450.91;5093398;28;20026;-63
2022/08/05 03:15:50;;;;;;;4.60;1.57;;;;;;;25.19;53.00;101458.91;5093129;28;20285;-64
2022/08/05 03:18:15;;;;;;;4.17;1.50;;;;;;;25.18;52.83;101460.72;5092091;28;20031;-64
2022/08/05 03:20:41;;;;;;;5.15;1.50;;;;;;;25.17;52.71;101467.91;5093021;28;20028;-63
2022/08/05 03:23:09;;;;;;;4.90;1.65;;;;;;;25.17;53.17;101477.75;5092938;28;20471;-63
2022/08/05 03:25:36;;;;;;;3.80;1.60;;;;;;;25.17;52.95;101475.06;5092318;28;20081;-63
2022/08/05 03:28:03;;;;;;;4.07;1.65;;;;;;;25.17;52.94;101477.75;5092915;28;20024;-64
2022/08/05 03:30:33;;;;;;;5.07;1.70;;;;;;;25.16;53.10;101476.06;5092749;28;20558;-64
2022/08/05 03:32:59;;;;;;;4.80;1.60;;;;;;;25.14;52.77;101476.22;5091372;28;20119;-64
2022/08/05 03:35:26;;;;;;;5.25;1.40;;;;;;;25.15;52.67;101471.72;5092089;28;20026;-63
2022/08/05 03:37:59;;;;;;;4.45;1.80;;;;;;;25.14;52.93;101470.06;5091972;28;20423;-63
2022/08/05 03:40:25;;;;;;;3.65;1.48;;;;;;;25.15;53.22;101479.72;5092985;28;20024;-64
2022/08/05 03:42:50;;;;;;;4.85;1.88;;;;;;;25.15;52.84;101477.03;5092912;28;20239;-63
2022/08/05 03:45:16;;;;;;;5.03;1.48;;;;;;;25.14;53.25;101470.06;5091544;28;20361;-63
2022/08/05 03:47:41;;;;;;;4.53;1.75;;;;;;;25.14;53.04;101473.53;5092656;28;20077;-63
2022/08/05 03:50:07;;;;;;;5.03;1.63;;;;;;;25.13;53.03;101471.91;5092333;28;20032;-63
2022/08/05 03:52:41;;;;;;;4.00;1.63;;;;;;;25.13;52.93;101465.69;5091968;28;20273;-64
2022/08/05 03:55:21;;;;;;;4.13;1.50;;;;;;;25.12;52.74;101467.53;5092313;28;20375;-64
2022/08/05 03:57:47;;;;;;;4.72;1.80;;;;;;;25.13;52.98;101457.69;5092911;28;20060;-64
2022/08/05 04:00:15;;;;;;;3.50;1.42;;;;;;;25.12;53.04;101461.38;5091437;28;20028;-64
2022/08/05 04:02:43;;;;;;;5.63;1.95;;;;;;;25.11;52.81;101447.19;5092726;28;20027;-64
2022/08/05 04:05:11;;;;;;;3.70;1.67;;;;;;;25.11;52.99;101451.69;5092369;28;20032;-64
2022/08/05 04:07:38;;;;;;;5.28;1.98;;;;;;;25.11;52.63;101451.69;5091793;28;20024;-64
2022/08/05 04:10:04;;;;;;;4.25;1.65;;;;;;;25.10;52.53;101448.22;5092013;28;20031;-63
2022/08/05 04:12:30;;;;;;;4.32;1.65;;;;;;;25.10;53.05;101447.34;5092610;28;20024;-64
2022/08/05 04:14:56;;;;;;;4.75;1.83;;;;;;;25.10;52.60;101448.22;5091435;28;20433;-63
2022/08/05 04:17:21;;;;;;;3.83;1.52;;;;;;;25.10;52.62;101442.00;5092268;28;20048;-64
2022/08/05 04:19:47;;;;;;;5.25;1.60;;;;;;;25.09;52.61;101445.69;5092399;28;20028;-63
2022/08/05 04:22:13;;;;;;;5.00;2.00;;;;;;;25.08;52.92;101444.84;5091965;28;20024;-62
2022/08/05 04:24:43;;;;;;;4.20;1.70;;;;;;;25.08;52.81;101444.84;5092396;28;20024;-62
2022/08/05 04:27:12;;;;;;;5.50;1.60;;;;;;;25.08;52.83;101441.34;5091419;28;20028;-62
2022/08/05 04:29:38;;;;;;;4.40;1.58;;;;;;;25.07;52.70;101437.00;5092318;28;20016;-62
2022/08/05 04:32:04;;;;;;;3.67;1.42;;;;;;;25.08;52.49;101452.00;5092344;28;20028;-62
2022/08/05 04:34:29;;;;;;;3.25;1.40;;;;;;;25.07;52.72;101456.50;5091559;28;20021;-62
2022/08/05 04:36:57;;;;;;;6.27;1.60;;;;;;;25.05;52.80;101458.47;5092440;28;20032;-62
2022/08/05 04:39:22;;;;;;;5.65;1.77;;;;;;;25.07;52.46;101467.19;5092239;28;20264;-63
2022/08/05 04:41:48;;;;;;;4.10;1.67;;;;;;;25.07;52.52;101472.50;5091515;28;20038;-64
2022/08/05 04:44:14;;;;;;;4.82;1.73;;;;;;;25.06;52.57;101475.34;5092042;28;20031;-64
2022/08/05 04:46:39;;;;;;;5.70;2.28;;;;;;;25.06;52.81;101475.34;5095049;28;20380;-64
2022/08/05 04:49:07;;;;;;;3.92;1.80;;;;;;;25.05;52.83;101466.47;5095059;28;20043;-63
2022/08/05 04:51:33;;;;;;;3.53;1.35;;;;;;;25.05;52.66;101469.16;5095965;28;20365;-63
2022/08/05 04:54:01;;;;;;;5.30;1.50;;;;;;;25.05;52.77;101466.47;5095779;28;20027;-64
2022/08/05 04:56:26;;;;;;;5.57;1.70;;;;;;;25.04;52.63;101471.97;5095238;28;20361;-62
2022/08/05 04:58:54;;;;;;;4.63;1.60;;;;;;;25.03;52.73;101468.47;5095946;28;20028;-63
2022/08/05 05:01:20;;;;;;;4.82;1.63;;;;;;;25.04;52.51;101475.50;5095797;28;20031;-63
2022/08/05 05:03:45;;;;;;;4.03;1.55;;;;;;;25.01;52.67;101466.94;5094918;28;20016;-63
2022/08/05 05:06:18;;;;;;;4.53;1.53;;;;;;;25.03;52.71;101470.31;5095226;28;20060;-62
2022/08/05 05:08:43;;;;;;;4.63;1.77;;;;;;;25.04;52.15;101471.97;5095733;28;20036;-62
2022/08/05 05:11:09;;;;;;;5.47;1.93;;;;;;;25.03;52.04;101481.81;5094299;28;20027;-62
2022/08/05 05:13:34;;;;;;;5.70;1.88;;;;;;;25.03;52.39;101475.66;5095750;28;20067;-62
2022/08/05 05:15:59;;;;;;;5.43;1.80;;;;;;;25.03;52.52;101468.47;5095166;28;20484;-62
2022/08/05 05:18:24;;;;;;;4.83;1.60;;;;;;;25.04;52.24;101474.63;5094781;28;20348;-61
2022/08/05 05:20:50;;;;;;;5.27;1.60;;;;;;;25.04;52.26;101477.31;5095668;28;20035;-63
2022/08/05 05:23:15;;;;;;;5.03;1.88;;;;;;;25.03;52.28;101475.66;5094277;28;20028;-63
2022/08/05 05:25:42;;;;;;;4.75;1.50;;;;;;;25.04;52.47;101483.50;5095046;28;20032;-63
2022/08/05 05:28:09;;;;;;;3.85;1.50;;;;;;;25.03;51.95;101481.81;5095117;28;20107;-62
2022/08/05 05:30:34;;;;;;;3.95;1.70;;;;;;;25.03;52.32;101489.81;5094561;28;20023;-63
2022/08/05 05:33:01;;;;;;;6.38;1.80;;;;;;;25.04;51.82;101490.63;5094753;28;20500;-62
2022/08/05 05:35:29;;;;;;;6.65;1.80;;;;;;;25.03;51.88;101495.13;5095109;28;20043;-63
2022/08/05 05:37:56;;;;;;;3.65;1.42;;;;;;;25.02;52.15;101490.78;5094253;28;20023;-63
2022/08/05 05:40:23;;;;;;;5.07;1.75;;;;;;;25.04;51.94;101498.63;5095000;28;20082;-64
2022/08/05 05:42:52;;;;;;;4.57;1.80;;;;;;;25.01;51.94;101502.47;5095100;28;20020;-63
2022/08/05 05:45:18;;;;;;;5.05;1.65;;;;;;;25.03;52.23;101502.31;5093782;28;20020;-63
2022/08/05 05:47:44;;;;;;;4.85;1.65;;;;;;;25.03;51.77;101507.63;5094946;28;20028;-63
2022/08/05 05:50:12;;;;;;;3.20;1.35;;;;;;;25.01;51.88;101514.94;5094407;28;20379;-63
2022/08/05 05:52:38;;;;;;;4.38;1.63;;;;;;;25.01;52.13;101514.94;5093951;28;20111;-65
2022/08/05 05:55:08;;;;;;;5.35;2.50;;;;;;;24.81;52.78;101517.78;5094312;28;20116;-65
2022/08/05 05:57:34;;;;;;;7.20;2.60;;;;;;;24.52;52.74;101521.47;5093715;28;20115;-64
2022/08/05 05:59:59;;;;;;;7.05;2.58;;;;;;;24.23;53.26;101527.00;5093723;28;20479;-65
2022/08/05 06:02:24;;;;;;;8.50;2.60;;;;;;;23.95;53.93;101526.97;5094587;28;20032;-68
2022/08/05 06:04:49;;;;;;;6.83;2.60;;;;;;;23.72;54.74;101523.81;5094505;28;20035;-67
2022/08/05 06:07:18;;;;;;;6.73;2.83;;;;;;;23.54;54.92;101529.03;5093369;28;20671;-65
2022/08/05 06:09:43;;;;;;;5.72;2.47;;;;;;;23.33;55.82;101522.09;5093780;28;20281;-67
2022/08/05 06:12:08;;;;;;;7.43;2.63;;;;;;;23.15;56.11;101527.28;5094172;28;20020;-67
2022/08/05 06:14:34;;;;;;;8.23;2.80;;;;;;;23.00;57.25;101533.97;5093647;28;20027;-63
2022/08/05 06:17:00;;;;;;;5.75;2.40;;;;;;;22.84;57.18;101526.56;5093668;28;20044;-64
2022/08/05 06:19:28;;;;;;;7.20;2.42;;;;;;;22.72;57.39;101525.88;5093433;28;20058;-65
2022/08/05 06:21:54;;;;;;;5.60;2.40;;;;;;;22.61;58.28;101521.53;5093964;28;20120;-66
2022/08/05 06:24:19;;;;;;;7.33;2.60;;;;;;;22.53;58.20;101526.69;5093949;28;20052;-64
2022/08/05 06:26:44;;;;;;;5.40;2.10;;;;;;;22.48;57.67;101536.03;5093278;28;20288;-66
2022/08/05 06:29:10;;;;;;;5.55;2.15;;;;;;;22.41;58.35;101533.94;5093838;28;20069;-66
2022/08/05 06:31:36;;;;;;;7.55;2.30;;;;;;;22.34;58.81;101538.09;5094156;28;20146;-66
2022/08/05 06:34:01;;;;;;;7.88;2.55;;;;;;;22.29;58.68;101540.31;5092769;28;20485;-67
2022/08/05 06:36:27;;;;;;;7.28;2.38;;;;;;;22.26;58.76;101537.91;5093882;28;20027;-67
2022/08/05 06:38:53;;;;;;;8.13;2.25;;;;;;;22.23;59.17;101541.66;5093684;28;20043;-66
2022/08/05 06:41:19;;;;;;;7.07;2.80;;;;;;;22.20;58.78;101541.94;5092808;28;20360;-66
2022/08/05 06:43:44;;;;;;;6.60;2.53;;;;;;;22.18;59.55;101551.88;5093893;28;20137;-65
2022/08/05 06:46:09;;;;;;;9.43;2.60;;;;;;;22.15;59.38;101554.78;5093436;28;20254;-66
2022/08/05 06:48:35;;;;;;;9.33;3.03;;;;;;;22.10;59.06;101559.66;5092817;28;20343;-67
2022/08/05 06:51:02;;;;;;;9.07;2.80;;;;;;;22.07;59.32;101570.53;5093238;28;20272;-67
2022/08/05 06:53:27;;;;;;;7.15;3.13;;;;;;;22.00;59.65;101572.91;5093765;28;20028;-68
2022/08/05 06:55:53;;;;;;;8.73;2.40;;;;;;;21.89;59.96;101573.81;5092940;28;20470;-69
2022/08/05 06:58:25;;;;;;;8.00;2.65;;;;;;;21.78;60.70;101571.25;5093150;28;20299;-72
2022/08/05 07:00:50;;;;;;;5.75;2.70;;;;;;;21.70;61.71;101579.84;5093430;28;20463;-72
2022/08/05 07:03:16;;;;;;;5.85;2.22;;;;;;;21.68;61.76;101579.16;5092284;28;20666;-67
2022/08/05 07:05:41;;;;;;;6.88;2.63;;;;;;;21.68;61.26;101583.59;5093284;28;20464;-67
2022/08/05 07:08:09;;;;;;;6.90;2.40;;;;;;;21.68;61.55;101583.59;5092610;28;20483;-69
2022/08/05 07:10:34;;;;;;;7.63;2.50;;;;;;;21.68;61.12;101588.91;5092552;28;20042;-68
2022/08/05 07:18:27;;;;;;;5.03;2.30;;;;;;;21.71;61.10;101588.66;5093560;28;20031;-64
2022/08/05 07:20:53;;;;;;;5.23;2.50;;;;;;;21.73;61.56;101590.22;5093177;28;20028;-64
2022/08/05 07:23:18;;;;;;;6.60;2.40;;;;;;;21.75;60.80;101598.03;5092259;28;20272;-65
2022/08/05 07:25:43;;;;;;;5.97;2.40;;;;;;;21.79;60.88;101594.13;5093051;28;20787;-64
2022/08/05 07:28:09;;;;;;;6.65;2.38;;;;;;;21.86;60.52;101607.75;5092765;28;20268;-66
2022/08/05 07:30:36;;;;;;;10.65;2.50;;;;;;;21.89;60.71;101610.97;5092181;28;20027;-65
2022/08/05 07:33:03;;;;;;;5.88;2.50;;;;;;;21.92;60.12;101609.84;5092767;28;20016;-64
2022/08/05 07:35:28;;;;;;;5.70;2.58;;;;;;;;;;5092863;28;20369;-66
2022/08/05 07:37:53;;;;;;;5.23;2.30;;;;;;;22.00;59.76;101625.13;5092309;28;20036;-67
2022/08/05 07:40:20;;;;;;;6.37;2.30;;;;;;;22.04;59.58;101624.72;5092482;28;20050;-66
2022/08/05 07:42:46;;;;;;;7.75;2.30;;;;;;;22.08;59.38;101615.53;5092973;28;20265;-67
2022/08/05 07:45:11;;;;;;;6.40;2.38;;;;;;;22.10;59.30;101621.53;5091638;28;20028;-67
2022/08/05 07:47:36;;;;;;;5.90;2.20;;;;;;;22.14;58.57;101626.59;5093075;28;20119;-67
2022/08/05 07:50:05;;;;;;;5.40;1.83;;;;;;;22.14;58.15;101624.75;5092362;28;20719;-67
2022/08/05 07:52:59;;;;;;;5.63;1.80;;;;;;;22.15;57.86;101626.47;5091922;28;20515;-68
2022/08/05 07:55:25;;;;;;;7.93;2.10;;;;;;;22.16;57.29;101625.50;5070732;28;20461;-61
2022/08/05 07:57:50;;;;;;;6.13;1.60;;;;;;;22.17;57.38;101616.53;5092000;28;20115;-66
2022/08/05 08:00:16;;;;;;;5.72;1.77;;;;;;;22.24;58.02;101625.66;5092323;28;20024;-65
2022/08/05 08:02:43;;;;;;;5.15;1.73;;;;;;;22.30;57.46;101626.13;5092712;28;20024;-64
2022/08/05 08:05:09;;;;;;;6.13;1.85;;;;;;;22.35;57.02;101635.41;5091416;28;20391;-63
2022/08/05 08:07:34;;;;;;;6.75;1.80;;;;;;;22.42;55.63;101636.53;5092592;28;20024;-64
2022/08/05 08:09:59;;;;;;;4.93;1.60;;;;;;;22.45;55.83;101635.44;5092175;28;20380;-64
2022/08/05 08:12:25;;;;;;;5.30;1.65;;;;;;;22.52;55.90;101638.38;5091839;28;20020;-64
2022/08/05 08:14:51;;;;;;;5.60;1.92;;;;;;;22.54;55.56;101639.94;5092767;28;20099;-63
2022/08/05 08:17:16;;;;;;;5.50;2.10;;;;;;;22.59;54.96;101648.34;5092078;28;20070;-64
2022/08/05 08:19:43;;;;;;;5.07;1.60;;;;;;;22.66;54.24;101653.94;5091781;28;20539;-63
2022/08/05 08:22:11;;;;;;;5.97;1.80;;;;;;;22.69;53.95;101656.34;5095916;28;20468;-64
2022/08/05 08:24:37;;;;;;;6.72;1.50;;;;;;;22.74;53.22;101662.06;5096346;28;20020;-65
2022/08/05 08:27:04;;;;;;;5.30;1.50;;;;;;;22.78;53.62;101668.81;5095239;28;20030;-64
2022/08/05 08:29:32;;;;;;;3.92;1.30;;;;;;;22.78;52.97;101671.47;5096539;28;20028;-65
2022/08/05 08:31:57;;;;;;;5.22;1.60;;;;;;;22.83;52.76;101671.91;5096026;28;20032;-66
2022/08/05 08:34:25;;;;;;;6.03;1.60;;;;;;;22.89;52.90;101672.31;5096030;28;20025;-63
2022/08/05 08:36:51;;;;;;;4.43;1.60;;;;;;;22.93;52.59;101676.41;5096267;28;20028;-64
2022/08/05 08:39:17;;;;;;;4.50;1.33;;;;;;;22.94;52.90;101672.75;5095801;28;20032;-64
2022/08/05 08:41:46;;;;;;;5.05;1.40;;;;;;;22.98;53.33;101675.00;5095618;28;20117;-64
2022/08/05 08:44:13;;;;;;;5.80;1.70;;;;;;;23.03;53.32;101679.06;5095871;28;20027;-64
2022/08/05 08:46:40;;;;;;;5.43;1.45;;;;;;;23.04;53.12;101688.75;5095920;28;20411;-64
2022/08/05 08:49:06;;;;;;;4.97;1.67;;;;;;;23.07;53.03;101683.16;5094933;28;20104;-68
2022/08/05 08:51:33;;;;;;;4.03;1.50;;;;;;;23.09;52.61;101692.69;5095886;28;20020;-67
2022/08/05 08:53:59;;;;;;;4.43;1.55;;;;;;;23.11;52.45;101701.34;5095430;28;20392;-68
2022/08/05 08:56:24;;;;;;;8.18;2.10;;;;;;;23.11;51.76;101703.19;5095149;28;20024;-68
2022/08/05 08:58:51;;;;;;;4.80;1.42;;;;;;;23.06;52.04;101697.41;5095962;28;20026;-68
2022/08/05 09:01:17;;;;;;;2.88;1.20;;;;;;;23.03;52.26;101705.66;5094933;28;20047;-67
2022/08/05 09:03:45;;;;;;;5.18;1.55;;;;;;;23.00;54.07;101706.75;5095913;28;20028;-68
2022/08/05 09:06:10;;;;;;;4.38;1.73;;;;;;;22.99;53.67;101707.75;5095218;28;20480;-68
2022/08/05 09:08:35;;;;;;;5.07;1.77;;;;;;;22.97;53.06;101718.53;5094834;28;20024;-67
2022/08/05 09:11:01;;;;;;;4.67;1.37;;;;;;;22.98;54.32;101716.69;5095507;28;20283;-68
2022/08/05 09:13:27;;;;;;;3.10;1.27;;;;;;;22.97;53.40;101723.84;5095604;28;20046;-68
2022/08/05 09:15:52;;;;;;;3.15;1.40;;;;;;;22.97;53.36;101720.31;5094665;28;20055;-71
2022/08/05 09:18:18;;;;;;;6.32;1.67;;;;;;;22.97;52.86;101720.31;5095357;28;20020;-70
2022/08/05 09:20:44;;;;;;;4.72;1.33;;;;;;;23.00;52.69;101718.25;5095376;28;20024;-64
2022/08/05 09:23:17;;;;;;;3.72;1.38;;;;;;;23.02;53.86;101715.47;5094296;28;20027;-66
2022/08/05 09:25:46;;;;;;;4.75;1.60;;;;;;;23.05;53.64;101722.31;5095688;28;20032;-67
2022/08/05 09:28:23;;;;;;;5.55;1.50;;;;;;;23.03;53.66;101729.59;5095188;28;20024;-67
2022/08/05 09:30:57;;;;;;;5.05;1.48;;;;;;;23.01;53.02;101740.34;5094736;28;20394;-68
2022/08/05 09:33:23;;;;;;;5.95;1.83;;;;;;;23.00;52.60;101743.97;5095397;28;20032;-71
2022/08/05 09:36:03;;;;;;;6.43;1.90;;;;;;;23.01;51.85;101743.00;5095005;28;20024;-71
2022/08/05 09:38:31;;;;;;;5.50;1.90;;;;;;;23.02;51.58;101731.41;5094580;28;20106;-70
2022/08/05 09:41:11;;;;;;;4.90;1.25;;;;;;;23.11;51.75;101735.09;5094614;28;20101;-71
2022/08/05 09:43:38;;;;;;;4.05;1.30;;;;;;;23.17;52.03;101746.00;5094068;28;20081;-68
2022/08/05 09:46:05;;;;;;;4.10;1.27;;;;;;;23.23;50.94;101747.28;5094347;28;20024;-69
2022/08/05 09:48:32;;;;;;;2.88;1.30;;;;;;;23.30;50.37;101739.59;5095068;28;20074;-71
2022/08/05 09:51:05;;;;;;;3.53;1.10;;;;;;;23.37;50.96;101738.09;5093881;28;20057;-69
2022/08/05 09:53:47;;;;;;;4.97;1.40;;;;;;;23.51;49.12;101736.81;5095053;28;20152;-69
2022/08/05 09:56:12;;;;;;;2.95;1.10;;;;;;;23.62;49.58;101741.19;5094404;28;20028;-70
2022/08/05 09:58:38;;;;;;;3.38;1.30;;;;;;;23.75;49.75;101743.56;5093921;28;20150;-70
2022/08/05 10:01:10;;;;;;;4.60;1.30;;;;;;;23.81;49.16;101743.84;5094494;28;20372;-68
2022/08/05 10:03:36;;;;;;;3.53;1.00;;;;;;;23.85;49.50;101747.09;5094549;28;20597;-69
2022/08/05 10:06:07;;;;;;;2.60;1.10;;;;;;;23.90;48.03;101750.19;5093506;28;20525;-70
2022/08/05 10:08:35;;;;;;;3.70;1.05;;;;;;;23.93;46.17;101746.41;5094470;28;20020;-68
2022/08/05 10:11:03;;;;;;;3.38;0.90;;;;;;;23.94;44.91;101759.56;5094148;28;20069;-71
2022/08/05 10:13:37;;;;;;;2.05;0.70;;;;;;;23.94;44.03;101756.91;5093543;28;20027;-69
2022/08/05 10:16:04;;;;;;;2.90;1.00;;;;;;;23.95;43.31;101761.22;5093934;28;20044;-73
2022/08/05 10:18:31;;;;;;;4.43;1.30;;;;;;;23.95;43.74;101750.59;5093953;28;20383;-69
2022/08/05 10:21:03;;;;;;;2.22;0.82;;;;;;;23.98;44.66;101763.63;5093964;28;20024;-66
2022/08/05 10:23:35;;;;;;;3.70;1.08;;;;;;;24.02;45.57;101762.38;5094237;28;20099;-66
2022/08/05 10:26:03;;;;;;;3.78;1.10;;;;;;;24.04;45.03;101765.72;5093063;28;20063;-65
2022/08/05 10:28:29;;;;;;;2.35;0.80;;;;;;;24.03;44.44;101765.84;5094235;28;20050;-66
2022/08/05 10:30:55;;;;;;;4.75;1.10;;;;;;;24.08;43.89;101768.94;5094079;28;20471;-65
2022/08/05 10:33:22;;;;;;;4.50;0.88;;;;;;;23.96;44.18;101743.44;5093080;28;20471;-63
2022/08/05 10:35:49;;;;;;;2.45;0.85;;;;;;;24.17;45.16;101769.91;5094016;28;20032;-64
2022/08/05 10:38:15;;;;;;;3.75;1.10;;;;;;;24.25;45.96;101776.19;5093435;28;20020;-66
2022/08/05 10:40:53;;;;;;;3.53;0.80;;;;;;;24.31;46.47;101771.28;5093084;28;20035;-64
2022/08/05 10:43:28;;;;;;;3.72;1.00;;;;;;;24.39;46.09;101768.75;5093343;28;20046;-72
2022/08/05 10:46:05;;;;;;;3.75;0.90;;;;;;;24.49;46.68;101782.03;5093807;28;20108;-70
2022/08/05 10:48:40;;;;;;;2.90;1.10;;;;;;;24.56;46.53;101770.69;5092943;28;20031;-72
2022/08/05 10:51:17;;;;;;;4.90;1.10;;;;;;;24.61;46.92;101772.94;5093702;28;20102;-68
2022/08/05 10:53:54;;;;;;;2.55;0.95;;;;;;;24.70;45.71;101779.19;5093055;28;20020;-64
2022/08/05 10:56:22;;;;;;;2.97;0.82;;;;;;;24.72;45.91;101782.56;5093482;28;20027;-65
2022/08/05 10:58:53;;;;;;;2.72;0.98;;;;;;;24.78;46.18;101790.81;5093580;28;20028;-66
2022/08/05 11:01:37;;;;;;;3.80;0.90;;;;;;;24.83;45.72;101785.03;5092291;28;20111;-65
2022/08/05 11:04:10;;;;;;;2.50;0.82;;;;;;;24.86;45.81;101790.06;5093236;28;20024;-66
2022/08/05 11:07:03;;;;;;;1.90;0.75;;;;;;;24.89;46.24;101791.63;5093517;28;20036;-65
2022/08/05 11:09:49;;;;;;;1.95;0.70;;;;;;;24.89;46.05;101787.09;5092554;28;20110;-65
2022/08/05 11:12:23;;;;;;;2.05;0.70;;;;;;;24.94;45.99;101798.19;5092926;28;20472;-65
2022/08/05 11:15:05;;;;;;;1.80;0.70;;;;;;;24.94;46.13;101790.19;5092614;28;20375;-65
2022/08/05 11:17:33;;;;;;;5.00;0.90;;;;;;;24.96;45.86;101796.22;5093034;28;20449;-65
2022/08/05 11:19:59;;;;;;;4.88;0.80;;;;;;;24.97;46.26;101797.88;5092817;28;20035;-65
2022/08/05 11:22:40;;;;;;;2.20;0.60;;;;;;;25.00;45.82;101807.41;5092552;28;20024;-65
2022/08/05 11:25:28;;;;;;;1.70;0.65;;;;;;;25.00;45.88;101802.09;5092758;28;20036;-65
2022/08/05 11:27:54;;;;;;;1.95;0.70;;;;;;;25.00;45.29;101807.41;5093009;28;20106;-64
2022/08/05 11:30:22;;;;;;;1.77;0.80;;;;;;;25.01;45.64;101806.44;5091906;28;20152;-65
2022/08/05 11:32:47;;;;;;;2.35;0.70;;;;;;;25.01;45.36;101811.78;5093170;28;20032;-65
2022/08/05 11:35:50;;;;;;;2.55;0.80;;;;;;;25.03;45.47;101812.47;5092731;28;20349;-63
2022/08/05 11:38:38;;;;;;;1.38;0.70;;;;;;;25.03;44.55;101815.13;5091892;28;20038;-62